createdAt,value
2022-12-11T00:00:15.904Z,100510.81
2022-12-11T00:02:42.595Z,100514.25
2022-12-11T00:05:09.683Z,100511.78
2022-12-11T00:07:36.908Z,100518.88
2022-12-11T00:10:04.189Z,100518.16
2022-12-11T00:12:31.482Z,100514.03
2022-12-11T00:14:58.170Z,100510.00
2022-12-11T00:17:25.015Z,100512.47
2022-12-11T00:19:51.732Z,100511.53
2022-12-11T00:22:18.381Z,100511.41
2022-12-11T00:24:45.022Z,100504.56
2022-12-11T00:27:11.952Z,100500.06
2022-12-11T00:29:38.847Z,100503.50
2022-12-11T00:32:06.413Z,100500.91
2022-12-11T00:34:33.110Z,100501.50
2022-12-11T00:36:59.809Z,100492.75
2022-12-11T00:39:26.444Z,100504.09
2022-12-11T00:41:53.169Z,100498.16
2022-12-11T00:44:19.845Z,100493.78
2022-12-11T00:46:46.546Z,100491.91
2022-12-11T00:49:13.230Z,100490.25
2022-12-11T00:51:39.871Z,100493.56
2022-12-11T00:54:06.893Z,100496.88
2022-12-11T00:56:33.523Z,100495.22
2022-12-11T00:59:00.215Z,100483.28
2022-12-11T01:01:26.956Z,100487.91
2022-12-11T01:04:02.253Z,100483.63
2022-12-11T01:06:29.387Z,100477.84
2022-12-11T01:09:15.249Z,100481.84
2022-12-11T01:11:42.754Z,100469.31
2022-12-11T01:14:10.258Z,100470.16
2022-12-11T01:16:36.966Z,100486.69
2022-12-11T01:19:03.751Z,100469.56
2022-12-11T01:21:30.486Z,100472.03
2022-12-11T01:23:59.452Z,100464.94
2022-12-11T01:26:26.133Z,100458.22
2022-12-11T01:28:52.798Z,100463.28
2022-12-11T01:31:20.208Z,100467.53
2022-12-11T01:33:46.902Z,100463.19
2022-12-11T01:36:20.940Z,100473.56
2022-12-11T01:38:48.431Z,100471.09
2022-12-11T01:41:15.875Z,100468.63
2022-12-11T01:44:05.198Z,100469.66
2022-12-11T01:46:32.781Z,100460.81
2022-12-11T01:49:00.187Z,100457.50
2022-12-11T01:51:27.806Z,100459.63
2022-12-11T01:54:01.061Z,100452.06
2022-12-11T01:56:29.588Z,100463.41
2022-12-11T01:59:00.347Z,100469.66
2022-12-11T02:01:47.329Z,100474.75
2022-12-11T02:04:14.587Z,100484.31
2022-12-11T02:06:46.968Z,100486.44
2022-12-11T02:09:19.298Z,100487.50
2022-12-11T02:11:45.886Z,100483.81
2022-12-11T02:14:21.386Z,100472.59
2022-12-11T02:16:52.417Z,100479.09
2022-12-11T02:19:31.387Z,100473.31
2022-12-11T02:21:59.366Z,100473.53
2022-12-11T02:24:45.100Z,100472.94
2022-12-11T02:27:31.420Z,100475.78
2022-12-11T02:30:17.572Z,100476.00
2022-12-11T02:32:58.059Z,100476.00
2022-12-11T02:35:28.338Z,100467.38
2022-12-11T02:37:57.942Z,100460.75
2022-12-11T02:40:26.875Z,100454.63
2022-12-11T02:42:55.152Z,100462.66
2022-12-11T02:45:22.905Z,100466.31
2022-12-11T02:47:49.823Z,100458.75
2022-12-11T02:50:18.659Z,100465.09
2022-12-11T02:52:47.191Z,100463.66
2022-12-11T02:55:14.983Z,100457.88
2022-12-11T02:57:47.957Z,100452.69
2022-12-11T03:00:14.816Z,100454.94
2022-12-11T03:02:41.811Z,100444.19
2022-12-11T03:05:10.285Z,100450.13
2022-12-11T03:07:38.317Z,100446.59
2022-12-11T03:10:07.253Z,100446.78
2022-12-11T03:12:37.157Z,100441.00
2022-12-11T03:15:05.871Z,100448.81
2022-12-11T03:17:44.777Z,100443.94
2022-12-11T03:20:30.699Z,100445.13
2022-12-11T03:23:17.552Z,100437.34
2022-12-11T03:25:53.663Z,100431.31
2022-12-11T03:28:24.551Z,100436.59
2022-12-11T03:30:53.700Z,100423.72
2022-12-11T03:33:23.876Z,100421.84
2022-12-11T03:35:59.467Z,100419.34
2022-12-11T03:38:31.579Z,100424.56
2022-12-11T03:41:01.005Z,100415.34
2022-12-11T03:43:29.358Z,100417.94
2022-12-11T03:45:57.130Z,100416.16
2022-12-11T03:48:25.573Z,100412.75
2022-12-11T03:50:52.620Z,100409.56
2022-12-11T03:53:20.677Z,100404.34
2022-12-11T03:55:48.442Z,100403.28
2022-12-11T03:58:15.139Z,100402.47
2022-12-11T04:00:41.753Z,100402.69
2022-12-11T04:03:14.844Z,100401.97
2022-12-11T04:05:42.732Z,100417.91
2022-12-11T04:08:09.765Z,100416.38
2022-12-11T04:10:36.546Z,100408.78
2022-12-11T04:13:03.195Z,100413.97
2022-12-11T04:15:29.799Z,100414.81
2022-12-11T04:18:15.222Z,100414.81
2022-12-11T04:21:00.521Z,100415.88
2022-12-11T04:23:45.637Z,100416.81
2022-12-11T04:26:17.080Z,100415.25
2022-12-11T04:28:44.545Z,100420.69
2022-12-11T04:31:12.737Z,100413.94
2022-12-11T04:33:39.406Z,100404.63
2022-12-11T04:36:06.737Z,100409.91
2022-12-11T04:38:33.383Z,100406.50
2022-12-11T04:41:11.346Z,100407.56
2022-12-11T04:43:38.337Z,100409.31
2022-12-11T04:46:07.508Z,100399.66
2022-12-11T04:48:34.697Z,100398.94
2022-12-11T04:51:01.370Z,100393.94
2022-12-11T04:53:28.288Z,100395.84
2022-12-11T04:55:55.305Z,100385.69
2022-12-11T04:58:22.220Z,100386.00
2022-12-11T05:00:48.895Z,100386.16
2022-12-11T05:03:15.621Z,100385.66
2022-12-11T05:05:47.720Z,100387.63
2022-12-11T05:08:14.446Z,100379.00
2022-12-11T05:10:44.528Z,100379.00
2022-12-11T05:13:15.247Z,100371.47
2022-12-11T05:15:41.893Z,100368.88
2022-12-11T05:18:09.191Z,100374.78
2022-12-11T05:20:35.779Z,100371.34
2022-12-11T05:23:02.467Z,100383.25
2022-12-11T05:25:29.095Z,100371.84
2022-12-11T05:27:55.705Z,100375.38
2022-12-11T05:30:22.341Z,100367.19
2022-12-11T05:32:48.967Z,100374.00
2022-12-11T05:35:15.657Z,100373.72
2022-12-11T05:37:42.299Z,100369.91
2022-12-11T05:40:09.303Z,100379.59
2022-12-11T05:42:35.958Z,100372.00
2022-12-11T05:45:02.612Z,100372.84
2022-12-11T05:47:29.231Z,100379.59
2022-12-11T05:49:55.855Z,100371.69
2022-12-11T05:52:22.459Z,100374.41
2022-12-11T05:54:50.396Z,100375.34
2022-12-11T05:57:17.257Z,100377.31
2022-12-11T05:59:45.409Z,100384.47
2022-12-11T06:02:12.079Z,100376.09
2022-12-11T06:04:38.838Z,100374.53
2022-12-11T06:07:05.600Z,100372.06
2022-12-11T06:09:32.252Z,100363.47
2022-12-11T06:11:58.918Z,100367.06
2022-12-11T06:14:25.575Z,100371.44
2022-12-11T06:16:52.357Z,100364.63
2022-12-11T06:19:19.551Z,100364.81
2022-12-11T06:21:46.811Z,100365.88
2022-12-11T06:24:13.687Z,100358.19
2022-12-11T06:26:40.439Z,100358.09
2022-12-11T06:29:10.909Z,100362.44
2022-12-11T06:31:39.653Z,100352.19
2022-12-11T06:34:06.439Z,100364.44
2022-12-11T06:36:33.124Z,100357.59
2022-12-11T06:38:59.774Z,100354.38
2022-12-11T06:41:26.458Z,100357.19
2022-12-11T06:43:53.152Z,100349.75
2022-12-11T06:46:20.275Z,100364.88
2022-12-11T06:48:47.754Z,100370.19
2022-12-11T06:51:16.258Z,100358.78
2022-12-11T06:53:43.217Z,100369.56
2022-12-11T06:56:13.403Z,100365.53
2022-12-11T06:58:40.557Z,100367.00
2022-12-11T07:01:20.757Z,100366.91
2022-12-11T07:03:47.770Z,100369.81
2022-12-11T07:06:15.175Z,100372.41
2022-12-11T07:08:42.124Z,100370.75
2022-12-11T07:11:09.986Z,100376.53
2022-12-11T07:13:36.749Z,100371.88
2022-12-11T07:16:04.859Z,100370.75
2022-12-11T07:18:32.836Z,100367.84
2022-12-11T07:21:00.581Z,100364.28
2022-12-11T07:23:28.546Z,100356.63
2022-12-11T07:25:55.653Z,100354.06
2022-12-11T07:28:22.505Z,100354.66
2022-12-11T07:30:49.688Z,100360.34
2022-12-11T07:33:16.383Z,100356.59
2022-12-11T07:35:43.833Z,100358.16
2022-12-11T07:38:10.483Z,100365.63
2022-12-11T07:40:37.422Z,100365.19
2022-12-11T07:43:04.101Z,100370.16
2022-12-11T07:45:30.812Z,100362.88
2022-12-11T07:47:57.486Z,100365.25
2022-12-11T07:50:24.187Z,100369.41
2022-12-11T07:52:50.951Z,100362.78
2022-12-11T07:55:17.582Z,100365.47
2022-12-11T07:57:44.247Z,100365.38
2022-12-11T08:00:11.959Z,100365.97
2022-12-11T08:02:38.690Z,100359.97
2022-12-11T08:05:05.810Z,100356.75
2022-12-11T08:07:34.429Z,100362.78
2022-12-11T08:10:01.196Z,100370.66
2022-12-11T08:12:27.892Z,100363.81
2022-12-11T08:14:54.724Z,100358.75
2022-12-11T08:17:25.864Z,100361.94
2022-12-11T08:19:55.713Z,100365.38
2022-12-11T08:22:22.464Z,100367.75
2022-12-11T08:24:49.120Z,100370.13
2022-12-11T08:27:15.825Z,100368.47
2022-12-11T08:29:44.271Z,100376.25
2022-12-11T08:32:12.623Z,100371.56
2022-12-11T08:34:39.430Z,100373.44
2022-12-11T08:37:06.198Z,100368.97
2022-12-11T08:39:33.020Z,100364.63
2022-12-11T08:41:59.627Z,100358.47
2022-12-11T08:44:27.452Z,100356.59
2022-12-11T08:46:54.179Z,100356.84
2022-12-11T08:49:20.846Z,100359.44
2022-12-11T08:51:47.503Z,100356.94
2022-12-11T08:54:14.214Z,100352.59
2022-12-11T08:56:40.947Z,100371.59
2022-12-11T08:59:07.742Z,100372.50
2022-12-11T09:01:34.559Z,100378.44
2022-12-11T09:04:01.370Z,100378.00
2022-12-11T09:06:29.414Z,100377.28
2022-12-11T09:08:56.467Z,100373.44
2022-12-11T09:11:33.261Z,100371.56
2022-12-11T09:14:05.444Z,100378.91
2022-12-11T09:16:34.400Z,100374.34
2022-12-11T09:19:01.051Z,100370.47
2022-12-11T09:21:29.316Z,100361.88
2022-12-11T09:23:57.301Z,100364.34
2022-12-11T09:26:24.606Z,100360.69
2022-12-11T09:28:53.481Z,100363.91
2022-12-11T09:31:24.660Z,100374.06
2022-12-11T09:33:52.248Z,100372.31
2022-12-11T09:36:19.285Z,100382.78
2022-12-11T09:38:46.138Z,100376.66
2022-12-11T09:41:22.322Z,100380.91
2022-12-11T09:43:52.586Z,100378.94
2022-12-11T09:46:23.544Z,100375.59
2022-12-11T09:48:51.578Z,100373.00
2022-12-11T09:51:20.937Z,100371.13
2022-12-11T09:53:49.667Z,100375.41
2022-12-11T09:56:28.556Z,100374.44
2022-12-11T09:59:30.647Z,100374.34
2022-12-11T10:02:31.085Z,100378.69
2022-12-11T10:05:28.948Z,100376.81
2022-12-11T10:08:09.306Z,100374.94
2022-12-11T10:10:43.884Z,100372.56
2022-12-11T10:13:36.833Z,100365.22
2022-12-11T10:16:09.643Z,100364.38
2022-12-11T10:18:36.822Z,100369.25
2022-12-11T10:21:03.772Z,100373.22
2022-12-11T10:23:41.897Z,100367.66
2022-12-11T10:26:12.873Z,100373.91
2022-12-11T10:28:39.560Z,100368.81
2022-12-11T10:31:24.791Z,100359.16
2022-12-11T10:34:01.310Z,100353.75
2022-12-11T10:36:33.067Z,100359.84
2022-12-11T10:38:59.830Z,100339.34
2022-12-11T10:41:40.004Z,100337.34
2022-12-11T10:44:21.102Z,100341.69
2022-12-11T10:46:48.778Z,100349.59
2022-12-11T10:49:23.376Z,100346.56
2022-12-11T10:51:50.607Z,100348.00
2022-12-11T10:54:27.619Z,100348.09
2022-12-11T10:56:54.559Z,100344.09
2022-12-11T10:59:26.832Z,100341.38
2022-12-11T11:01:53.958Z,100343.16
2022-12-11T11:04:30.223Z,100342.91
2022-12-11T11:07:04.629Z,100346.72
2022-12-11T11:09:34.085Z,100343.16
2022-12-11T11:12:07.392Z,100337.53
2022-12-11T11:14:34.687Z,100339.28
2022-12-11T11:17:01.465Z,100332.47
2022-12-11T11:19:34.372Z,100329.88
2022-12-11T11:22:03.101Z,100325.72
2022-12-11T11:24:41.158Z,100327.38
2022-12-11T11:27:26.596Z,100320.28
2022-12-11T11:29:58.357Z,100322.69
2022-12-11T11:32:45.848Z,100318.09
2022-12-11T11:35:12.713Z,100321.25
2022-12-11T11:37:45.536Z,100316.59
2022-12-11T11:40:16.485Z,100309.59
2022-12-11T11:43:01.773Z,100316.00
2022-12-11T11:45:36.387Z,100305.97
2022-12-11T11:48:13.411Z,100301.81
2022-12-11T11:50:44.985Z,100300.03
2022-12-11T11:53:19.503Z,100305.97
2022-12-11T11:56:06.515Z,100292.88
2022-12-11T11:58:55.600Z,100294.41
2022-12-11T12:01:22.475Z,100299.59
2022-12-11T12:03:49.919Z,100296.44
2022-12-11T12:06:36.758Z,100291.81
2022-12-11T12:09:06.621Z,100291.47
2022-12-11T12:11:33.278Z,100297.13
2022-12-11T12:14:03.433Z,100290.91
2022-12-11T12:19:50.821Z,100295.38
2022-12-11T12:22:20.509Z,100304.47
2022-12-11T12:24:59.588Z,100293.63
2022-12-11T12:27:52.959Z,100281.56
2022-12-11T12:30:22.842Z,100275.66
2022-12-11T12:33:13.464Z,100287.13
2022-12-11T12:36:06.810Z,100287.81
2022-12-11T12:38:40.323Z,100285.78
2022-12-11T12:41:06.941Z,100296.06
2022-12-11T12:43:52.413Z,100291.34
2022-12-11T12:46:37.943Z,100284.28
2022-12-11T12:49:05.638Z,100276.38
2022-12-11T12:51:32.511Z,100265.72
2022-12-11T12:54:10.535Z,100266.19
2022-12-11T12:56:40.766Z,100263.94
2022-12-11T12:59:19.038Z,100265.59
2022-12-11T13:01:52.593Z,100270.66
2022-12-11T13:07:27.431Z,100270.56
2022-12-11T13:10:05.375Z,100264.41
2022-12-11T13:12:42.963Z,100262.66
2022-12-11T13:15:26.244Z,100267.00
2022-12-11T13:17:52.979Z,100265.09
2022-12-11T13:20:21.016Z,100263.22
2022-12-11T13:22:48.499Z,100258.97
2022-12-11T13:25:26.167Z,100259.78
2022-12-11T13:27:53.048Z,100264.75
2022-12-11T13:30:23.087Z,100258.47
2022-12-11T13:32:55.715Z,100254.00
2022-12-11T13:35:22.399Z,100267.69
2022-12-11T13:37:52.326Z,100269.34
2022-12-11T13:40:20.250Z,100269.09
2022-12-11T13:42:49.653Z,100261.28
2022-12-11T13:45:21.972Z,100251.41
2022-12-11T13:47:48.618Z,100250.56
2022-12-11T13:50:20.635Z,100246.22
2022-12-11T13:52:54.818Z,100252.66
2022-12-11T13:55:27.889Z,100253.41
2022-12-11T13:57:54.482Z,100254.59
2022-12-11T14:00:22.990Z,100257.19
2022-12-11T14:02:50.866Z,100255.41
2022-12-11T14:05:18.472Z,100263.09
2022-12-11T14:07:49.659Z,100258.59
2022-12-11T14:10:19.651Z,100264.25
2022-12-11T14:12:55.388Z,100257.06
2022-12-11T14:15:22.262Z,100267.22
2022-12-11T14:17:51.946Z,100259.28
2022-12-11T14:20:27.943Z,100262.34
2022-12-11T14:23:21.273Z,100263.88
2022-12-11T14:26:09.916Z,100262.69
2022-12-11T14:28:40.400Z,100259.03
2022-12-11T14:31:14.547Z,100264.91
2022-12-11T14:33:45.648Z,100257.94
2022-12-11T14:36:18.739Z,100253.69
2022-12-11T14:38:46.943Z,100258.38
2022-12-11T14:41:20.239Z,100261.81
2022-12-11T14:43:51.329Z,100253.91
2022-12-11T14:46:25.002Z,100257.22
2022-12-11T14:49:00.790Z,100255.28
2022-12-11T14:51:32.294Z,100255.28
2022-12-11T14:54:04.680Z,100245.16
2022-12-11T14:56:36.095Z,100246.66
2022-12-11T14:59:08.584Z,100243.22
2022-12-11T15:01:37.422Z,100238.19
2022-12-11T15:04:23.373Z,100236.53
2022-12-11T15:06:50.991Z,100242.66
2022-12-11T15:09:17.735Z,100238.41
2022-12-11T15:11:45.106Z,100230.75
2022-12-11T15:14:12.685Z,100235.94
2022-12-11T15:16:40.939Z,100235.25
2022-12-11T15:19:14.868Z,100235.34
2022-12-11T15:21:41.557Z,100233.84
2022-12-11T15:24:21.856Z,100235.50
2022-12-11T15:26:48.915Z,100230.16
2022-12-11T15:29:51.153Z,100233.34
2022-12-11T15:32:19.799Z,100232.38
2022-12-11T15:34:57.134Z,100234.97
2022-12-11T15:37:27.361Z,100234.59
2022-12-11T15:39:55.006Z,100230.50
2022-12-11T15:42:26.326Z,100225.41
2022-12-11T15:44:54.016Z,100218.53
2022-12-11T15:47:24.981Z,100226.59
2022-12-11T15:49:55.729Z,100231.69
2022-12-11T15:52:22.426Z,100224.72
2022-12-11T15:54:49.115Z,100224.72
2022-12-11T15:57:25.791Z,100221.13
2022-12-11T15:59:54.240Z,100219.50
2022-12-11T16:02:21.103Z,100222.94
2022-12-11T16:04:47.844Z,100232.53
2022-12-11T16:07:33.683Z,100235.94
2022-12-11T16:10:00.660Z,100223.56
2022-12-11T16:12:27.445Z,100231.16
2022-12-11T16:14:54.190Z,100231.28
2022-12-11T16:17:20.795Z,100223.84
2022-12-11T16:19:50.117Z,100231.19
2022-12-11T16:22:16.984Z,100231.28
2022-12-11T16:24:43.772Z,100235.91
2022-12-11T16:27:10.475Z,100223.75
2022-12-11T16:29:42.910Z,100226.22
2022-12-11T16:32:09.802Z,100221.25
2022-12-11T16:34:37.776Z,100235.91
2022-12-11T16:37:05.338Z,100237.56
2022-12-11T16:39:31.975Z,100238.41
2022-12-11T16:41:58.754Z,100237.56
2022-12-11T16:44:26.947Z,100244.88
2022-12-11T16:46:54.122Z,100239.56
2022-12-11T16:49:21.308Z,100247.81
2022-12-11T16:51:49.557Z,100236.47
2022-12-11T16:54:16.265Z,100242.88
2022-12-11T16:56:43.089Z,100239.19
2022-12-11T16:59:09.784Z,100239.19
2022-12-11T17:01:36.481Z,100234.81
2022-12-11T17:04:03.156Z,100237.19
2022-12-11T17:06:29.938Z,100239.28
2022-12-11T17:08:56.612Z,100226.78
2022-12-11T17:11:25.120Z,100233.97
2022-12-11T17:13:59.065Z,100228.94
2022-12-11T17:16:29.190Z,100227.59
2022-12-11T17:18:56.891Z,100219.09
2022-12-11T17:21:23.822Z,100215.56
2022-12-11T17:23:50.945Z,100222.03
2022-12-11T17:26:18.500Z,100213.16
2022-12-11T17:28:45.323Z,100221.97
2022-12-11T17:31:16.493Z,100226.78
2022-12-11T17:33:44.312Z,100230.50
2022-12-11T17:36:13.522Z,100230.75
2022-12-11T17:38:40.152Z,100231.31
2022-12-11T17:41:07.412Z,100231.06
2022-12-11T17:43:34.259Z,100232.72
2022-12-11T17:46:00.982Z,100222.44
2022-12-11T17:48:28.220Z,100224.91
2022-12-11T17:50:54.899Z,100224.31
2022-12-11T17:53:22.112Z,100222.66
2022-12-11T17:55:48.859Z,100220.28
2022-12-11T17:58:16.948Z,100216.41
2022-12-11T18:00:44.555Z,100225.03
2022-12-11T18:03:11.660Z,100225.16
2022-12-11T18:05:46.008Z,100217.47
2022-12-11T18:08:16.776Z,100214.06
2022-12-11T18:10:43.817Z,100216.16
2022-12-11T18:13:10.458Z,100213.78
2022-12-11T18:15:37.707Z,100211.91
2022-12-11T18:18:04.921Z,100215.34
2022-12-11T18:20:31.867Z,100217.94
2022-12-11T18:22:58.526Z,100213.56
2022-12-11T18:25:25.211Z,100209.31
2022-12-11T18:27:52.208Z,100211.06
2022-12-11T18:30:18.910Z,100203.53
2022-12-11T18:32:45.596Z,100215.94
2022-12-11T18:35:12.515Z,100217.97
2022-12-11T18:37:39.533Z,100215.38
2022-12-11T18:40:07.346Z,100217.03
2022-12-11T18:42:34.311Z,100211.72
2022-12-11T18:45:01.186Z,100210.41
2022-12-11T18:47:27.966Z,100204.59
2022-12-11T18:49:54.638Z,100206.63
2022-12-11T18:52:21.306Z,100204.75
2022-12-11T18:54:49.313Z,100207.69
2022-12-11T18:57:15.929Z,100211.00
2022-12-11T19:00:07.573Z,100207.34
2022-12-11T19:02:35.185Z,100213.59
2022-12-11T19:05:01.858Z,100207.38
2022-12-11T19:07:28.626Z,100211.28
2022-12-11T19:09:55.386Z,100207.16
2022-12-11T19:12:22.095Z,100206.22
2022-12-11T19:14:49.087Z,100214.13
2022-12-11T19:17:15.714Z,100209.28
2022-12-11T19:19:47.514Z,100208.25
2022-12-11T19:22:15.233Z,100223.00
2022-12-11T19:24:41.888Z,100213.66
2022-12-11T19:27:13.278Z,100211.06
2022-12-11T19:29:41.265Z,100213.09
2022-12-11T19:32:07.874Z,100223.50
2022-12-11T19:34:34.502Z,100216.06
2022-12-11T19:37:01.149Z,100225.16
2022-12-11T19:39:27.797Z,100222.81
2022-12-11T19:41:54.677Z,100229.53
2022-12-11T19:44:21.437Z,100223.97
2022-12-11T19:46:48.215Z,100227.66
2022-12-11T19:49:15.588Z,100227.88
2022-12-11T19:51:42.768Z,100237.69
2022-12-11T19:54:11.616Z,100227.41
2022-12-11T19:56:38.318Z,100225.53
2022-12-11T19:59:06.895Z,100221.44
2022-12-11T20:01:36.442Z,100221.53
2022-12-11T20:04:10.758Z,100220.81
2022-12-11T20:06:39.232Z,100214.69
2022-12-11T20:09:07.529Z,100221.66
2022-12-11T20:11:34.271Z,100216.56
2022-12-11T20:14:01.021Z,100214.22
2022-12-11T20:16:53.854Z,100212.44
2022-12-11T20:19:14.828Z,100215.88
2022-12-11T20:21:42.464Z,100222.00
2022-12-11T20:24:09.559Z,100217.06
2022-12-11T20:26:37.121Z,100216.25
2022-12-11T20:29:08.532Z,100226.84
2022-12-11T20:31:36.121Z,100223.44
2022-12-11T20:34:02.798Z,100219.56
2022-12-11T20:36:29.481Z,100216.63
2022-12-11T20:38:56.380Z,100212.59
2022-12-11T20:41:24.296Z,100221.22
2022-12-11T20:43:53.280Z,100228.88
2022-12-11T20:46:20.979Z,100222.16
2022-12-11T20:48:48.109Z,100230.78
2022-12-11T20:51:18.564Z,100225.59
2022-12-11T20:53:50.457Z,100224.03
2022-12-11T20:56:42.199Z,100229.03
2022-12-11T20:59:24.233Z,100229.81
2022-12-11T21:01:50.942Z,100233.38
2022-12-11T21:04:17.655Z,100225.59
2022-12-11T21:06:44.342Z,100221.09
2022-12-11T21:09:17.946Z,100228.31
2022-12-11T21:11:44.627Z,100230.53
2022-12-11T21:14:11.244Z,100223.00
2022-12-11T21:16:38.181Z,100221.44
2022-12-11T21:19:06.610Z,100220.41
2022-12-11T21:21:34.023Z,100222.28
2022-12-11T21:24:00.657Z,100227.38
2022-12-11T21:26:27.326Z,100226.75
2022-12-11T21:28:54.181Z,100227.84
2022-12-11T21:31:20.971Z,100231.63
2022-12-11T21:33:48.198Z,100222.06
2022-12-11T21:36:15.426Z,100227.84
2022-12-11T21:38:43.843Z,100229.59
2022-12-11T21:41:15.770Z,100232.78
2022-12-11T21:44:32.922Z,100226.53
2022-12-11T21:46:30.701Z,100225.47
2022-12-11T21:48:57.452Z,100224.28
2022-12-11T21:51:29.684Z,100225.91
2022-12-11T21:53:59.322Z,100219.91
2022-12-11T21:56:27.447Z,100225.25
2022-12-11T21:58:54.646Z,100215.53
2022-12-11T22:01:25.925Z,100221.56
2022-12-11T22:03:53.491Z,100223.09
2022-12-11T22:06:22.371Z,100218.59
2022-12-11T22:08:49.422Z,100224.03
2022-12-11T22:11:20.242Z,100225.09
2022-12-11T22:13:47.401Z,100219.78
2022-12-11T22:16:14.099Z,100224.16
2022-12-11T22:18:40.906Z,100218.38
2022-12-11T22:21:10.913Z,100219.31
2022-12-11T22:23:39.184Z,100231.38
2022-12-11T22:26:09.867Z,100223.56
2022-12-11T22:28:36.558Z,100221.44
2022-12-11T22:31:03.197Z,100229.97
2022-12-11T22:33:29.891Z,100221.34
2022-12-11T22:35:57.320Z,100228.03
2022-12-11T22:38:24.218Z,100228.88
2022-12-11T22:40:50.884Z,100229.72
2022-12-11T22:43:17.670Z,100229.25
2022-12-11T22:45:44.359Z,100229.34
2022-12-11T22:48:11.034Z,100220.72
2022-12-11T22:50:38.651Z,100228.31
2022-12-11T22:53:05.725Z,100220.16
2022-12-11T22:55:32.685Z,100228.06
2022-12-11T22:57:59.315Z,100211.78
2022-12-11T23:00:26.327Z,100219.56
2022-12-11T23:02:53.078Z,100218.03
2022-12-11T23:05:19.789Z,100219.69
2022-12-11T23:07:46.664Z,100228.56
2022-12-11T23:10:13.459Z,100228.41
2022-12-11T23:12:40.281Z,100227.47
2022-12-11T23:15:07.982Z,100231.47
2022-12-11T23:17:34.574Z,100233.13
2022-12-11T23:20:03.855Z,100227.13
2022-12-11T23:22:30.816Z,100245.09
2022-12-11T23:24:57.757Z,100240.09
2022-12-11T23:27:24.520Z,100250.38
2022-12-11T23:29:51.137Z,100243.41
2022-12-11T23:32:17.809Z,100251.06
2022-12-11T23:34:44.455Z,100251.22
2022-12-11T23:37:11.278Z,100246.13
2022-12-11T23:39:45.534Z,100248.84
2022-12-11T23:42:12.163Z,100260.88
2022-12-11T23:44:38.885Z,100254.88
2022-12-11T23:47:05.574Z,100257.47
2022-12-11T23:49:32.313Z,100255.69
2022-12-11T23:51:59.041Z,100261.00
2022-12-11T23:54:25.871Z,100256.53
2022-12-11T23:57:19.652Z,100252.88
2022-12-11T23:59:52.775Z,100246.03
